Time;durP1;ratioP1;P1;durP2;ratioP2;P2;SDS_P1;SDS_P2;PMS_P1;PMS_P2;Temp;Humidity;BMP_temperature;BMP_pressure;BME280_temperature;BME280_humidity;BME280_pressure;Samples;Min_cycle;Max_cycle;Signal;HPM_P1;HPM_P2
2023/09/09 00:00:55;;;;;;;0.10;0.10;;;;;;;26.42;47.63;100954.31;7364820;19;20500;-59
2023/09/09 00:03:21;;;;;;;0.00;0.00;;;;;;;26.39;47.53;100958.94;7354914;19;20498;-60
2023/09/09 00:05:47;;;;;;;0.00;0.00;;;;;;;26.36;47.75;100950.34;7370808;19;20017;-60
2023/09/09 00:08:12;;;;;;;0.10;0.10;;;;;;;26.33;47.64;100950.59;7361617;19;20800;-59
2023/09/09 00:10:38;;;;;;;0.10;0.10;;;;;;;26.29;46.57;100951.81;7366659;19;20007;-60
2023/09/09 00:13:05;;;;;;;0.05;0.05;;;;;;;26.27;47.23;100953.81;7364420;19;20469;-58
2023/09/09 00:15:31;;;;;;;0.10;0.10;;;;;;;26.23;47.89;100952.34;7363253;19;20030;-60
2023/09/09 00:17:57;;;;;;;0.10;0.10;;;;;;;26.19;48.04;100940.19;7364222;19;20014;-59
2023/09/09 00:20:36;;;;;;;0.00;0.00;;;;;;;26.07;46.58;100932.22;7364084;19;20761;-59
2023/09/09 00:23:07;;;;;;;0.03;0.03;;;;;;;26.09;48.16;100946.31;7362617;19;20010;-60
2023/09/09 00:25:33;;;;;;;0.10;0.10;;;;;;;26.07;47.42;100950.97;7367617;19;20010;-60
2023/09/09 00:27:59;;;;;;;0.00;0.00;;;;;;;26.03;47.18;100933.47;7364082;19;20746;-60
2023/09/09 00:30:24;;;;;;;0.10;0.10;;;;;;;26.01;46.97;100932.75;7364141;19;20506;-60
2023/09/09 00:32:49;;;;;;;0.10;0.10;;;;;;;25.97;47.67;100939.34;7364099;19;20003;-57
2023/09/09 00:35:15;;;;;;;0.00;0.00;;;;;;;25.96;48.32;100936.81;7367051;19;20017;-60
2023/09/09 00:37:40;;;;;;;0.10;0.10;;;;;;;25.93;48.70;100934.38;7360172;19;20011;-60
2023/09/09 00:40:07;;;;;;;0.10;0.10;;;;;;;25.89;48.47;100939.13;7367600;19;20901;-60
2023/09/09 00:42:32;;;;;;;0.10;0.10;;;;;;;25.85;48.93;100935.88;7366225;19;20037;-60
2023/09/09 00:44:58;;;;;;;0.10;0.10;;;;;;;25.81;49.53;100938.94;7367197;19;20007;-60
2023/09/09 00:47:24;;;;;;;0.10;0.10;;;;;;;25.76;50.02;100944.66;7355612;19;20773;-60
2023/09/09 00:49:50;;;;;;;0.03;0.03;;;;;;;25.72;49.51;100929.78;7364968;19;20018;-60
2023/09/09 00:52:16;;;;;;;0.00;0.00;;;;;;;25.69;49.40;100935.38;7366136;19;20010;-59
2023/09/09 00:54:41;;;;;;;0.10;0.10;;;;;;;25.66;50.17;100932.13;7363212;19;20038;-59
2023/09/09 00:57:07;;;;;;;0.10;0.10;;;;;;;25.60;49.67;100934.34;7365020;19;20010;-60
2023/09/09 00:59:32;;;;;;;0.10;0.10;;;;;;;25.59;49.93;100937.13;7367465;19;20010;-59
2023/09/09 01:01:58;;;;;;;0.00;0.00;;;;;;;25.57;50.93;100936.41;7363542;19;20586;-62
2023/09/09 01:04:24;;;;;;;0.08;0.08;;;;;;;25.44;49.74;100919.66;7362271;19;20010;-59
2023/09/09 01:06:50;;;;;;;0.00;0.00;;;;;;;25.50;50.17;100933.41;7364457;19;20037;-59
2023/09/09 01:09:16;;;;;;;0.10;0.10;;;;;;;25.46;49.64;100929.25;7363787;19;20506;-59
2023/09/09 01:11:41;;;;;;;0.10;0.10;;;;;;;25.45;50.40;100929.41;7364961;19;20012;-59
2023/09/09 01:14:07;;;;;;;0.10;0.10;;;;;;;25.42;50.57;100927.81;7362419;19;20024;-60
2023/09/09 01:16:32;;;;;;;0.10;0.10;;;;;;;25.38;50.00;100931.69;7360868;19;20045;-60
2023/09/09 01:18:58;;;;;;;0.00;0.00;;;;;;;25.36;50.05;100926.50;7364805;19;20816;-60
2023/09/09 01:21:27;;;;;;;0.05;0.05;;;;;;;25.33;50.56;100921.38;7365581;19;20015;-60
2023/09/09 01:23:53;;;;;;;0.10;0.10;;;;;;;25.30;50.96;100931.50;7356785;19;20014;-59
2023/09/09 01:26:18;;;;;;;0.10;0.10;;;;;;;25.27;50.28;100924.56;7366740;19;20023;-60
2023/09/09 01:28:44;;;;;;;0.00;0.00;;;;;;;25.24;51.08;100926.63;7365944;19;20030;-59
2023/09/09 01:31:10;;;;;;;0.10;0.10;;;;;;;25.20;51.06;100919.84;7364396;19;20011;-60
2023/09/09 01:33:35;;;;;;;0.05;0.05;;;;;;;25.16;51.09;100923.72;7363510;19;20695;-60
2023/09/09 01:36:03;;;;;;;0.10;0.10;;;;;;;25.12;50.81;100923.13;7360896;19;20010;-59
2023/09/09 01:38:28;;;;;;;0.00;0.00;;;;;;;25.06;50.44;100919.13;7358436;19;20022;-61
2023/09/09 01:40:54;;;;;;;0.03;0.03;;;;;;;25.04;50.55;100920.16;7364401;19;20006;-60
2023/09/09 01:43:19;;;;;;;0.03;0.03;;;;;;;25.00;50.54;100927.59;7366513;19;20012;-60
2023/09/09 01:45:44;;;;;;;0.10;0.10;;;;;;;24.97;51.11;100927.84;7363484;19;20017;-60
2023/09/09 01:48:10;;;;;;;0.10;0.10;;;;;;;24.93;51.17;100926.38;7362711;19;20014;-60
2023/09/09 01:50:35;;;;;;;0.10;0.10;;;;;;;24.90;51.61;100929.31;7361892;19;20028;-59
2023/09/09 01:53:03;;;;;;;0.00;0.00;;;;;;;24.86;51.35;100933.19;7362679;19;20011;-59
2023/09/09 01:55:28;;;;;;;0.10;0.10;;;;;;;24.81;51.48;100925.53;7352357;19;20013;-59
2023/09/09 01:57:54;;;;;;;0.03;0.03;;;;;;;24.76;51.00;100924.19;7355701;19;20007;-60
2023/09/09 02:00:20;;;;;;;0.00;0.00;;;;;;;24.74;51.70;100928.81;7358640;19;20010;-58
2023/09/09 02:02:45;;;;;;;0.10;0.10;;;;;;;24.70;53.41;100927.34;7351978;19;20037;-60
2023/09/09 02:05:10;;;;;;;0.10;0.10;;;;;;;24.65;51.93;100919.69;7364442;19;20006;-60
2023/09/09 02:07:36;;;;;;;0.10;0.10;;;;;;;24.59;53.19;100921.03;7371815;19;20458;-58
2023/09/09 02:10:01;;;;;;;0.10;0.10;;;;;;;24.54;52.41;100920.53;7365505;19;20474;-59
2023/09/09 02:12:28;;;;;;;0.10;0.10;;;;;;;24.46;51.55;100908.75;7367176;19;20014;-58
2023/09/09 02:14:53;;;;;;;0.10;0.10;;;;;;;24.48;52.19;100923.69;7363060;19;20013;-59
2023/09/09 02:17:19;;;;;;;0.10;0.10;;;;;;;24.44;52.23;100926.72;7368760;19;20767;-60
2023/09/09 02:19:44;;;;;;;0.10;0.10;;;;;;;24.39;53.20;100924.41;7362845;19;20070;-59
2023/09/09 02:22:10;;;;;;;0.10;0.10;;;;;;;24.37;53.14;100931.66;7367216;19;20018;-59
2023/09/09 02:24:35;;;;;;;0.00;0.00;;;;;;;24.32;52.38;100929.31;7360960;19;20011;-60
2023/09/09 02:27:02;;;;;;;0.00;0.00;;;;;;;24.28;52.73;100925.19;7365977;19;20738;-60
2023/09/09 02:29:28;;;;;;;0.10;0.10;;;;;;;24.26;53.42;100928.94;7358323;19;20010;-59
2023/09/09 02:31:53;;;;;;;0.10;0.10;;;;;;;24.22;54.20;100927.47;7364772;19;20477;-59
2023/09/09 02:34:19;;;;;;;0.10;0.10;;;;;;;24.15;53.56;100916.41;7366401;19;20462;-59
2023/09/09 02:37:05;;;;;;;0.10;0.10;;;;;;;24.13;53.68;100928.16;7363019;19;20403;-59
2023/09/09 02:39:30;;;;;;;0.10;0.10;;;;;;;24.07;53.50;100924.97;7367350;19;20010;-60
2023/09/09 02:41:55;;;;;;;0.10;0.10;;;;;;;24.03;53.73;100923.53;7367627;19;20021;-59
2023/09/09 02:44:21;;;;;;;0.10;0.10;;;;;;;24.00;53.75;100929.09;7364161;19;20007;-60
2023/09/09 02:46:46;;;;;;;0.10;0.10;;;;;;;23.96;53.86;100924.94;7364598;19;20018;-60
2023/09/09 02:49:12;;;;;;;0.10;0.10;;;;;;;23.93;54.20;100922.53;7365809;19;20351;-59
2023/09/09 02:51:38;;;;;;;0.10;0.10;;;;;;;23.90;53.63;100921.91;7366437;19;20015;-59
2023/09/09 02:54:03;;;;;;;0.00;0.00;;;;;;;23.84;53.89;100923.22;7354077;19;20017;-59
2023/09/09 02:56:28;;;;;;;0.10;0.10;;;;;;;23.82;54.11;100927.78;7364137;19;20783;-58
2023/09/09 02:58:54;;;;;;;0.10;0.10;;;;;;;23.81;53.85;100934.09;7354429;19;20010;-61
2023/09/09 03:01:19;;;;;;;0.10;0.10;;;;;;;23.78;53.40;100929.88;7361150;19;20010;-61
2023/09/09 03:03:45;;;;;;;0.10;0.10;;;;;;;23.77;54.03;100932.63;7353589;19;20018;-61
2023/09/09 03:06:10;;;;;;;0.10;0.10;;;;;;;23.75;53.55;100934.56;7364335;19;20006;-61
2023/09/09 03:08:36;;;;;;;0.10;0.10;;;;;;;23.73;53.96;100941.84;7366289;19;20566;-60
2023/09/09 03:11:01;;;;;;;0.10;0.10;;;;;;;23.71;54.13;100941.09;7363978;19;20074;-60
2023/09/09 03:13:27;;;;;;;0.10;0.10;;;;;;;23.69;54.26;100945.69;7365042;19;20021;-60
2023/09/09 03:15:52;;;;;;;0.05;0.05;;;;;;;23.64;54.09;100926.50;7354067;19;20780;-58
2023/09/09 03:18:18;;;;;;;0.10;0.10;;;;;;;23.65;53.66;100937.06;7363924;19;20044;-60
2023/09/09 03:20:43;;;;;;;0.00;0.00;;;;;;;23.64;55.08;100938.03;7336200;19;20055;-60
2023/09/09 03:23:09;;;;;;;0.05;0.05;;;;;;;23.63;54.43;100940.78;7356516;19;20059;-60
2023/09/09 03:25:34;;;;;;;0.00;0.00;;;;;;;23.60;54.11;100941.84;7360323;19;20026;-59
2023/09/09 03:28:00;;;;;;;0.10;0.10;;;;;;;23.59;54.60;100934.81;7364836;19;20036;-61
2023/09/09 03:30:25;;;;;;;0.00;0.00;;;;;;;23.56;54.78;100935.88;7360583;19;20958;-61
2023/09/09 03:32:50;;;;;;;0.10;0.10;;;;;;;23.54;54.49;100940.47;7356671;19;20010;-60
2023/09/09 03:35:16;;;;;;;0.13;0.13;;;;;;;23.52;54.52;100938.91;7364535;19;20011;-59
2023/09/09 03:37:41;;;;;;;0.10;0.10;;;;;;;23.49;54.72;100934.63;7368256;19;20040;-59
2023/09/09 03:40:07;;;;;;;0.10;0.10;;;;;;;23.48;54.48;100932.94;7366384;19;20017;-60
2023/09/09 03:42:33;;;;;;;0.00;0.00;;;;;;;23.46;55.28;100934.84;7363945;19;20034;-60
2023/09/09 03:44:58;;;;;;;0.00;0.00;;;;;;;23.44;54.96;100942.13;7363385;19;20018;-59
2023/09/09 03:47:25;;;;;;;0.10;0.10;;;;;;;23.42;55.03;100938.72;7363679;19;20387;-59
2023/09/09 03:49:53;;;;;;;0.10;0.10;;;;;;;23.40;55.85;100929.13;7362554;19;20797;-61
2023/09/09 03:52:19;;;;;;;0.10;0.10;;;;;;;23.38;55.01;100937.25;7360134;19;20010;-60
2023/09/09 03:54:44;;;;;;;0.10;0.10;;;;;;;23.36;55.85;100933.81;7365472;19;20002;-60
2023/09/09 03:57:10;;;;;;;0.00;0.00;;;;;;;23.34;55.83;100935.75;7362664;19;20006;-59
2023/09/09 03:59:35;;;;;;;0.10;0.10;;;;;;;23.33;55.95;100938.53;7364808;19;20009;-59
2023/09/09 04:02:00;;;;;;;0.03;0.03;;;;;;;23.30;55.19;100934.28;7361886;19;20027;-59
2023/09/09 04:04:26;;;;;;;0.10;0.10;;;;;;;23.22;55.09;100920.66;7362636;19;20394;-60
2023/09/09 04:06:51;;;;;;;0.10;0.10;;;;;;;23.26;55.68;100932.78;7362717;19;20011;-60
2023/09/09 04:09:22;;;;;;;0.00;0.00;;;;;;;23.25;55.47;100925.75;7358658;19;20031;-60
2023/09/09 04:11:48;;;;;;;0.00;0.00;;;;;;;23.22;55.77;100920.66;7366314;19;20017;-60
2023/09/09 04:14:13;;;;;;;0.00;0.00;;;;;;;23.22;55.35;100926.00;7367459;19;20810;-58
2023/09/09 04:16:39;;;;;;;0.10;0.10;;;;;;;23.20;55.61;100925.22;7370106;19;20090;-60
2023/09/09 04:19:04;;;;;;;0.00;0.00;;;;;;;23.18;55.46;100930.69;7375692;19;20026;-59
2023/09/09 04:21:29;;;;;;;0.10;0.10;;;;;;;23.15;55.61;100924.72;7367594;19;20014;-60
2023/09/09 04:23:55;;;;;;;0.10;0.10;;;;;;;23.14;55.42;100923.88;7374728;19;20011;-61
2023/09/09 04:26:20;;;;;;;0.00;0.00;;;;;;;23.11;55.10;100932.06;7367424;19;20018;-58
2023/09/09 04:28:46;;;;;;;0.10;0.10;;;;;;;23.13;55.26;100937.31;7369149;19;20006;-60
2023/09/09 04:31:11;;;;;;;0.10;0.10;;;;;;;23.11;55.16;100941.88;7370095;19;20018;-60
2023/09/09 04:33:36;;;;;;;0.10;0.10;;;;;;;23.10;55.64;100935.69;7369288;19;20015;-59
2023/09/09 04:36:02;;;;;;;0.10;0.10;;;;;;;23.07;55.61;100932.41;7360024;19;20118;-61
2023/09/09 04:38:27;;;;;;;0.10;0.10;;;;;;;23.08;55.74;100934.13;7369915;19;20074;-60
2023/09/09 04:40:53;;;;;;;0.00;0.00;;;;;;;23.05;55.60;100933.34;7364441;19;20326;-60
2023/09/09 04:43:20;;;;;;;0.10;0.10;;;;;;;23.04;55.61;100937.00;7366691;19;20011;-61
2023/09/09 04:45:45;;;;;;;;;;;;;;;23.03;52.99;100937.97;7368300;19;20479;-61
2023/09/09 04:48:11;;;;;;;0.10;0.10;;;;;;;22.98;55.38;100933.91;7368148;19;20019;-61
2023/09/09 04:50:36;;;;;;;0.10;0.10;;;;;;;22.97;55.64;100938.41;7370182;19;20011;-57
2023/09/09 04:53:02;;;;;;;0.10;0.10;;;;;;;22.95;55.39;100942.97;7366790;19;20003;-58
2023/09/09 04:55:28;;;;;;;0.10;0.10;;;;;;;22.91;55.08;100938.84;7366181;19;20355;-59
2023/09/09 04:57:53;;;;;;;0.10;0.10;;;;;;;22.87;55.55;100947.97;7369275;19;20016;-60
2023/09/09 05:00:18;;;;;;;0.00;0.00;;;;;;;22.83;55.36;100943.81;7368213;19;20021;-58
2023/09/09 05:02:44;;;;;;;0.10;0.10;;;;;;;22.82;55.37;100947.44;7362159;19;20010;-61
2023/09/09 05:05:09;;;;;;;0.10;0.10;;;;;;;22.80;55.82;100946.66;7365583;19;20021;-58
2023/09/09 05:07:36;;;;;;;0.00;0.00;;;;;;;22.77;55.48;100952.22;7367419;19;20018;-60
2023/09/09 05:10:05;;;;;;;0.10;0.10;;;;;;;22.76;55.96;100945.22;7366657;19;20038;-60
2023/09/09 05:12:32;;;;;;;0.10;0.10;;;;;;;22.72;55.92;100954.34;7367556;19;20027;-57
2023/09/09 05:14:57;;;;;;;0.10;0.10;;;;;;;22.69;56.59;100954.56;7367998;19;20019;-59
2023/09/09 05:17:23;;;;;;;0.10;0.10;;;;;;;22.57;56.54;100939.44;7366665;19;20014;-59
2023/09/09 05:19:49;;;;;;;0.10;0.10;;;;;;;22.61;56.27;100959.56;7367861;19;20137;-60
2023/09/09 05:22:14;;;;;;;0.10;0.10;;;;;;;22.57;56.40;100950.09;7365421;19;20013;-58
2023/09/09 05:24:39;;;;;;;0.10;0.10;;;;;;;22.53;56.52;100957.44;7363081;19;20540;-60
2023/09/09 05:27:05;;;;;;;0.00;0.00;;;;;;;22.51;56.10;100951.38;7365028;19;20011;-61
2023/09/09 05:29:31;;;;;;;0.10;0.10;;;;;;;22.49;56.17;100954.13;7366016;19;20451;-61
2023/09/09 05:31:56;;;;;;;0.10;0.10;;;;;;;22.48;56.42;100955.09;7368367;19;20074;-60
2023/09/09 05:34:22;;;;;;;0.10;0.10;;;;;;;22.47;55.91;100961.38;7358015;19;20507;-58
2023/09/09 05:36:48;;;;;;;0.10;0.10;;;;;;;22.36;55.50;100939.13;7364549;19;20039;-61
2023/09/09 05:39:13;;;;;;;0.00;0.00;;;;;;;22.45;56.05;100960.59;7374094;19;20014;-59
2023/09/09 06:28:16;;;;;;;0.10;0.10;;;;;;;21.63;56.12;100883.69;7373060;19;20493;-60
2023/09/09 06:30:45;;;;;;;0.10;0.10;;;;;;;22.17;55.88;100963.44;7365895;19;20449;-61
2023/09/09 06:33:10;;;;;;;0.10;0.10;;;;;;;22.15;55.68;100965.34;7365496;19;20101;-60
2023/09/09 06:35:37;;;;;;;0.10;0.10;;;;;;;22.16;55.73;100967.06;7366779;19;20766;-61
2023/09/09 06:38:02;;;;;;;0.10;0.10;;;;;;;22.18;56.16;100967.81;7366347;19;20015;-60
2023/09/09 06:40:28;;;;;;;0.10;0.10;;;;;;;22.19;55.75;100966.84;7361748;19;20917;-61
2023/09/09 06:42:54;;;;;;;0.00;0.00;;;;;;;22.21;55.96;100970.28;7363135;19;20078;-61
2023/09/09 06:45:19;;;;;;;0.10;0.10;;;;;;;22.21;55.97;100972.94;7365349;19;20010;-59
2023/09/09 06:47:45;;;;;;;0.03;0.03;;;;;;;22.24;56.66;100976.22;7367425;19;20007;-60
2023/09/09 06:50:11;;;;;;;0.03;0.03;;;;;;;22.26;56.55;100973.47;7371734;19;20011;-60
2023/09/09 06:52:39;;;;;;;0.10;0.10;;;;;;;22.29;56.92;100973.25;7374605;19;20003;-61
2023/09/09 06:55:07;;;;;;;0.05;0.05;;;;;;;22.32;56.52;100972.19;7373948;19;20054;-61
2023/09/09 06:57:32;;;;;;;;;;;;;;;22.36;54.41;100973.72;7375486;19;20070;-60
2023/09/09 06:59:57;;;;;;;0.10;0.10;;;;;;;22.35;56.11;100972.81;7366117;19;20001;-59
2023/09/09 07:02:23;;;;;;;0.10;0.10;;;;;;;22.36;56.55;100979.03;7365550;19;20501;-62
2023/09/09 07:04:48;;;;;;;0.10;0.10;;;;;;;22.36;56.60;100979.03;7366859;19;20014;-60
2023/09/09 07:07:14;;;;;;;0.10;0.10;;;;;;;22.24;56.22;100965.56;7365070;19;20013;-61
2023/09/09 07:09:39;;;;;;;0.10;0.10;;;;;;;22.35;56.21;100988.78;7364690;19;20027;-60
2023/09/09 07:12:05;;;;;;;0.10;0.10;;;;;;;22.37;55.96;101002.03;7361192;19;20006;-61
2023/09/09 07:14:31;;;;;;;0.10;0.10;;;;;;;22.38;56.79;101001.91;7367327;19;20007;-63
2023/09/09 07:16:56;;;;;;;0.10;0.10;;;;;;;22.38;56.87;101004.56;7365472;19;20014;-61
2023/09/09 07:19:21;;;;;;;0.10;0.10;;;;;;;22.40;56.42;101002.63;7357895;19;20011;-60
2023/09/09 07:21:47;;;;;;;0.10;0.10;;;;;;;22.42;56.69;101000.75;7366251;19;20644;-61
2023/09/09 07:24:12;;;;;;;0.10;0.10;;;;;;;22.44;56.22;101009.47;7370879;19;20759;-61
2023/09/09 07:26:38;;;;;;;0.10;0.10;;;;;;;22.48;55.92;101004.81;7362630;19;20423;-61
2023/09/09 07:29:03;;;;;;;0.10;0.10;;;;;;;22.51;56.31;101004.59;7363178;19;20010;-61
2023/09/09 07:31:29;;;;;;;0.10;0.10;;;;;;;22.49;55.97;100991.38;7362888;19;20011;-60
2023/09/09 07:33:55;;;;;;;0.08;0.08;;;;;;;22.59;55.91;100993.41;7365086;19;20010;-61
2023/09/09 07:36:21;;;;;;;0.10;0.10;;;;;;;22.64;55.99;100999.28;7363933;19;20030;-61
2023/09/09 07:38:46;;;;;;;0.10;0.10;;;;;;;22.66;55.92;100997.38;7365994;19;20078;-60
2023/09/09 07:41:12;;;;;;;0.10;0.10;;;;;;;22.69;56.22;100998.00;7363549;19;20588;-60
2023/09/09 07:43:37;;;;;;;0.10;0.10;;;;;;;22.71;56.17;101001.44;7362335;19;20880;-60
2023/09/09 07:46:02;;;;;;;0.10;0.10;;;;;;;22.73;56.20;100999.50;7362738;19;20469;-60
2023/09/09 07:48:28;;;;;;;0.10;0.10;;;;;;;22.76;55.95;101001.13;7370255;19;20018;-61
2023/09/09 07:50:55;;;;;;;0.10;0.10;;;;;;;22.78;55.82;100997.38;7372861;19;20028;-59
2023/09/09 07:53:21;;;;;;;0.10;0.10;;;;;;;22.71;56.02;100979.28;7373813;19;20017;-60
2023/09/09 07:55:50;;;;;;;0.00;0.00;;;;;;;22.85;55.42;100997.78;7371819;19;20018;-59
2023/09/09 07:58:18;;;;;;;0.10;0.10;;;;;;;22.86;55.98;100998.66;7362160;19;20015;-61
2023/09/09 08:00:44;;;;;;;0.00;0.00;;;;;;;22.90;56.73;101006.34;7374606;19;20022;-60
2023/09/09 08:03:13;;;;;;;0.00;0.00;;;;;;;22.79;56.33;100977.78;7372673;19;20018;-61
2023/09/09 08:05:42;;;;;;;0.08;0.08;;;;;;;22.96;56.48;100994.41;7366147;19;20022;-60
2023/09/09 08:08:07;;;;;;;0.10;0.10;;;;;;;22.98;56.66;101001.34;7370259;19;20010;-60
2023/09/09 08:10:33;;;;;;;0.10;0.10;;;;;;;23.05;56.91;100999.94;7369181;19;20021;-61
2023/09/09 08:12:59;;;;;;;0.10;0.10;;;;;;;23.11;57.10;101008.47;7369146;19;20755;-60
2023/09/09 08:15:25;;;;;;;0.10;0.10;;;;;;;23.16;57.80;101012.50;7369479;19;20033;-61
2023/09/09 08:17:51;;;;;;;0.10;0.10;;;;;;;23.22;57.91;101017.44;7371219;19;20024;-60
2023/09/09 08:20:16;;;;;;;0.10;0.10;;;;;;;23.28;57.97;101016.16;7369648;19;20803;-59
2023/09/09 08:22:42;;;;;;;0.00;0.00;;;;;;;23.35;58.93;101022.72;7366882;19;20010;-61
2023/09/09 08:25:07;;;;;;;0.10;0.10;;;;;;;23.39;59.23;101013.56;7371267;19;20014;-60
2023/09/09 08:27:33;;;;;;;0.10;0.10;;;;;;;23.53;58.97;101021.44;7368783;19;20029;-62
2023/09/09 08:29:58;;;;;;;0.10;0.10;;;;;;;23.68;58.72;101023.97;7366079;19;20006;-60
2023/09/09 08:32:24;;;;;;;0.17;0.17;;;;;;;23.76;58.94;101016.25;7370069;19;20002;-63
2023/09/09 08:34:54;;;;;;;0.10;0.10;;;;;;;23.99;58.05;101020.78;7369467;19;20498;-59
2023/09/09 08:37:19;;;;;;;0.10;0.10;;;;;;;24.23;58.55;101035.91;7371062;19;20021;-60
2023/09/09 08:39:45;;;;;;;0.10;0.10;;;;;;;24.43;58.44;101038.00;7368205;19;20015;-61
2023/09/09 08:42:23;;;;;;;0.10;0.10;;;;;;;24.65;56.94;101037.19;7373907;19;20094;-61
2023/09/09 08:45:01;;;;;;;0.10;0.10;;;;;;;24.79;56.72;101044.16;7368437;19;20568;-61
2023/09/09 08:47:29;;;;;;;0.10;0.10;;;;;;;24.81;57.40;101036.88;7372421;19;20011;-61
2023/09/09 08:49:59;;;;;;;0.10;0.10;;;;;;;24.91;56.56;101037.84;7372232;19;20114;-63
2023/09/09 08:52:27;;;;;;;0.10;0.10;;;;;;;24.94;57.57;101036.75;7370172;19;20041;-60
2023/09/09 08:54:53;;;;;;;0.10;0.10;;;;;;;24.98;57.30;101039.06;7364020;19;20011;-60
2023/09/09 08:57:19;;;;;;;0.10;0.10;;;;;;;25.06;57.20;101042.03;7366060;19;20037;-60
2023/09/09 08:59:47;;;;;;;0.10;0.10;;;;;;;25.18;57.33;101042.03;7363317;19;20393;-62
2023/09/09 09:02:13;;;;;;;0.10;0.10;;;;;;;25.26;57.73;101043.16;7364687;19;20010;-61
2023/09/09 09:04:39;;;;;;;0.08;0.08;;;;;;;25.41;57.24;101042.91;7375033;19;20017;-61
2023/09/09 09:07:05;;;;;;;0.10;0.10;;;;;;;25.58;56.64;101039.72;7376787;19;20031;-59
2023/09/09 09:09:31;;;;;;;0.10;0.10;;;;;;;25.75;56.27;101043.72;7369564;19;20027;-61
2023/09/09 09:12:01;;;;;;;0.10;0.10;;;;;;;25.95;55.69;101039.44;7369644;19;20015;-61
2023/09/09 09:14:27;;;;;;;0.10;0.10;;;;;;;26.10;56.27;101038.19;7370228;19;20010;-60
2023/09/09 09:16:54;;;;;;;0.08;0.08;;;;;;;26.33;56.32;101038.94;7366933;19;20021;-59
2023/09/09 09:19:28;;;;;;;0.10;0.10;;;;;;;26.65;55.36;101039.78;7368456;19;20010;-61
2023/09/09 09:21:55;;;;;;;0.10;0.10;;;;;;;26.90;55.56;101041.22;7365123;19;20007;-60
2023/09/09 09:24:23;;;;;;;0.08;0.08;;;;;;;27.23;54.93;101033.13;7371146;19;20014;-62
2023/09/09 09:26:49;;;;;;;0.10;0.10;;;;;;;27.53;54.43;101033.09;7366845;19;20018;-60
2023/09/09 09:29:14;;;;;;;0.10;0.10;;;;;;;27.84;54.05;101033.06;7368377;19;20022;-61
2023/09/09 09:31:40;;;;;;;0.10;0.10;;;;;;;28.16;53.32;101038.16;7366732;19;20102;-60
2023/09/09 09:34:08;;;;;;;0.03;0.03;;;;;;;28.44;53.02;101020.41;7369831;19;20440;-61
2023/09/09 09:36:34;;;;;;;0.10;0.10;;;;;;;28.77;51.91;101031.66;7368046;19;20006;-60
2023/09/09 09:39:08;;;;;;;0.10;0.10;;;;;;;29.16;52.03;101027.03;7369946;19;20011;-61
2023/09/09 09:41:34;;;;;;;0.00;0.00;;;;;;;29.35;50.94;101026.09;7352063;19;20086;-58
2023/09/09 09:43:59;;;;;;;0.00;0.00;;;;;;;29.62;50.20;101036.91;7365308;19;20089;-59
2023/09/09 09:46:24;;;;;;;0.10;0.10;;;;;;;29.79;50.38;101024.47;7352339;19;20010;-61
2023/09/09 09:48:50;;;;;;;0.10;0.10;;;;;;;30.15;50.08;101040.69;7363295;19;20026;-60
2023/09/09 09:51:16;;;;;;;0.10;0.10;;;;;;;30.44;49.29;101040.44;7364298;19;20465;-60
2023/09/09 09:53:47;;;;;;;0.10;0.10;;;;;;;30.78;49.12;101032.50;7364033;19;20333;-61
2023/09/09 09:56:13;;;;;;;0.10;0.10;;;;;;;30.86;48.02;101024.44;7361631;19;20015;-64
2023/09/09 09:58:40;;;;;;;0.03;0.03;;;;;;;31.00;47.55;101031.94;7360419;19;20041;-61
2023/09/09 10:01:06;;;;;;;0.00;0.00;;;;;;;31.10;47.69;101031.84;7360584;19;20960;-61
2023/09/09 10:03:41;;;;;;;0.10;0.10;;;;;;;31.32;47.97;101035.00;7356832;19;20014;-60
2023/09/09 10:06:09;;;;;;;0.10;0.10;;;;;;;31.31;46.36;101039.56;7363161;19;20010;-61
2023/09/09 10:08:55;;;;;;;0.10;0.10;;;;;;;31.52;47.19;101033.75;7365583;19;20568;-61
2023/09/09 10:11:25;;;;;;;0.00;0.00;;;;;;;31.63;46.27;101032.59;7366726;19;20014;-60
2023/09/09 10:14:10;;;;;;;0.00;0.00;;;;;;;31.76;46.65;101025.72;7366470;19;20990;-62
2023/09/09 10:16:38;;;;;;;0.03;0.03;;;;;;;31.75;45.86;101037.53;7359312;19;20098;-61
2023/09/09 10:19:04;;;;;;;0.10;0.10;;;;;;;31.77;46.31;101031.97;7365034;19;20541;-61
2023/09/09 10:21:31;;;;;;;;;;;;;;;32.03;46.66;101040.00;7365375;19;20032;-59
2023/09/09 10:23:56;;;;;;;;;;;;;;;32.15;46.52;101032.41;7367184;19;20627;-61
2023/09/09 10:26:22;;;;;;;0.10;0.10;;;;;;;31.91;43.70;101027.81;7359565;19;19926;-60
2023/09/09 10:28:49;;;;;;;0.10;0.10;;;;;;;31.83;43.60;101017.00;7367140;19;20463;-61
2023/09/09 10:31:16;;;;;;;0.10;0.10;;;;;;;31.85;43.95;101025.78;7365841;19;20027;-61
2023/09/09 10:33:46;;;;;;;0.00;0.00;;;;;;;31.87;44.09;101030.00;7366748;19;20015;-62
2023/09/09 10:36:14;;;;;;;0.10;0.10;;;;;;;31.80;44.58;101026.25;7359884;19;20007;-61
2023/09/09 10:38:39;;;;;;;0.10;0.10;;;;;;;31.76;43.36;101023.03;7369146;19;20026;-59
2023/09/09 10:41:06;;;;;;;0.10;0.10;;;;;;;31.72;43.89;101021.66;7361001;19;20023;-60
2023/09/09 10:43:31;;;;;;;0.10;0.10;;;;;;;31.56;43.76;101007.28;7360104;19;20387;-60
2023/09/09 10:45:57;;;;;;;0.00;0.00;;;;;;;31.61;43.40;101019.28;7361235;19;20534;-62
2023/09/09 10:48:24;;;;;;;0.03;0.03;;;;;;;31.51;43.40;101007.75;7367645;19;20516;-62
2023/09/09 10:50:52;;;;;;;0.10;0.10;;;;;;;31.57;44.26;101028.69;7357794;19;20010;-61
2023/09/09 10:53:25;;;;;;;0.10;0.10;;;;;;;31.64;44.24;101029.75;7369767;19;20094;-62
2023/09/09 10:55:54;;;;;;;0.10;0.10;;;;;;;31.67;44.09;101032.09;7362480;19;20024;-61
2023/09/09 10:58:20;;;;;;;0.00;0.00;;;;;;;31.76;44.02;101028.44;7363457;19;20018;-61
2023/09/09 11:00:48;;;;;;;0.00;0.00;;;;;;;31.99;43.45;101017.88;7362987;19;20566;-61
2023/09/09 11:03:15;;;;;;;0.08;0.08;;;;;;;32.19;42.50;101029.22;7363266;19;20014;-61
2023/09/09 11:06:07;;;;;;;0.10;0.10;;;;;;;32.57;44.00;101021.47;7364460;19;20094;-62
2023/09/09 11:08:42;;;;;;;0.10;0.10;;;;;;;32.72;42.80;101014.34;7365764;19;20055;-62
2023/09/09 11:11:15;;;;;;;0.00;0.00;;;;;;;33.13;43.17;101022.41;7362855;19;20011;-62
2023/09/09 11:13:42;;;;;;;0.10;0.10;;;;;;;33.42;41.99;101024.53;7366818;19;20486;-61
2023/09/09 11:16:07;;;;;;;0.00;0.00;;;;;;;33.74;40.94;101020.78;7364999;19;20557;-61
2023/09/09 11:18:37;;;;;;;0.10;0.10;;;;;;;34.21;40.97;101011.69;7362509;19;20017;-61
2023/09/09 11:21:05;;;;;;;0.10;0.10;;;;;;;34.31;39.71;100974.31;7360790;19;20900;-62
2023/09/09 11:23:32;;;;;;;0.10;0.10;;;;;;;34.92;40.31;101004.06;7365258;19;20051;-62
2023/09/09 11:25:59;;;;;;;0.10;0.10;;;;;;;35.35;39.37;101010.56;7361138;19;20015;-61
2023/09/09 11:28:25;;;;;;;0.10;0.10;;;;;;;35.70;38.57;101001.81;7360009;19;20022;-60
2023/09/09 11:30:51;;;;;;;;;;;;;;;36.27;40.68;100999.03;7363419;19;20022;-64
2023/09/09 11:33:25;;;;;;;;;;;;;;;36.62;40.29;100996.44;7362800;19;19915;-60
2023/09/09 11:35:51;;;;;;;0.10;0.10;;;;;;;36.73;37.67;100995.88;7360520;19;19922;-62
2023/09/09 11:38:16;;;;;;;0.10;0.10;;;;;;;37.06;35.03;100987.94;7364019;19;20125;-62
2023/09/09 11:40:45;;;;;;;0.10;0.10;;;;;;;37.40;36.59;100981.59;7363694;19;20025;-62
2023/09/09 11:43:14;;;;;;;0.10;0.10;;;;;;;37.76;35.71;100993.22;7361338;19;20013;-62
2023/09/09 11:45:39;;;;;;;0.10;0.10;;;;;;;37.91;35.53;100997.47;7361103;19;20007;-62
2023/09/09 11:48:05;;;;;;;0.20;0.20;;;;;;;38.21;34.03;100991.63;7372206;19;20011;-62
2023/09/09 11:50:41;;;;;;;0.10;0.10;;;;;;;38.65;35.27;100992.91;7372532;19;20335;-62
2023/09/09 11:53:07;;;;;;;;;;;;;;;39.07;37.15;100996.19;7363401;19;20015;-62
2023/09/09 11:55:33;;;;;;;0.10;0.10;;;;;;;39.11;33.14;100994.72;7360011;19;20510;-62
2023/09/09 11:57:58;;;;;;;0.15;0.15;;;;;;;39.41;32.37;100998.59;7362201;19;20113;-62
2023/09/09 12:00:24;;;;;;;0.17;0.17;;;;;;;39.72;30.96;100994.25;7364458;19;20025;-61
2023/09/09 12:02:49;;;;;;;0.10;0.10;;;;;;;40.02;30.65;101007.31;7361112;19;20594;-62
2023/09/09 12:05:15;;;;;;;0.13;0.13;;;;;;;40.17;31.13;100995.03;7364966;19;20007;-62
2023/09/09 12:07:41;;;;;;;0.13;0.13;;;;;;;40.30;31.06;100995.97;7367037;19;20018;-61
2023/09/09 12:10:12;;;;;;;0.17;0.17;;;;;;;40.48;29.47;100996.00;7359219;19;20014;-62